Impacts TAF Board INFO
FOR SITUATIONAL AWARENESS. NOT TO BE USED FOR FLIGHT PLANNING PURPOSES.
IDs:

KSFO - San Francisco Intl, CA, US

Issued at 0527 UTC 22 Jul 2018
Updated at 0835 UTC 22 Jul 2018
Potential Impact None Slight Moderate High
Time<<23/09Z 23/10Z 23/11Z 23/12Z 23/13Z 23/14Z 23/15Z 23/16Z 23/17Z 23/18Z 23/19Z 23/20Z 23/21Z
Type PRVL PRVL PRVL
VIS >6 >6 >6
CIG -- 8 8
Cover SCT BKN BKN
FltCat VFR IFR IFR
WX -- -- --
WDir 280 280 280
WSpd 13 8 8
WGst -- -- --

Raw TAF
KSFO 220527Z 2206/2312 28013KT P6SM FEW005
  FM220800 28008KT P6SM FEW005 SCT008
  FM221200 27006KT P6SM BKN008
  FM221600 27005KT P6SM FEW010
  FM222000 30013KT P6SM SCT200
  FM222300 28017KT P6SM FEW008 SCT200
  FM230300 28013KT P6SM SCT010
  FM231000 28008KT P6SM BKN008


METAR Board
Radar Display
Forecast Discussion

FOR SITUATIONAL AWARENESS. NOT TO BE USED FOR FLIGHT PLANNING PURPOSES.